Airport View

Enter AWOS ICAO identifier for current METAR.

ex. KFNL

KFMH 270056Z 28007KT 10SM CLR 02/M02 A2972

27 Jan 2020 01:05

Other Area AWOS: KHYA - KMVY - KPYM - KEWB

TAF KFMH 262321Z 2700/2724 27005KT P6SM FEW050 FM271300 25010G17KT P6SM BKN050 FM271400 25011G18KT P6SM BKN050 FM272300 28012KT P6SM SCT060